sensor_id;sensor_type;location;lat;lon;timestamp;temperature;humidity
3705;DHT22;1868;48.918;9.438;2023-06-14T00:01:57;13.50;95.40
3705;DHT22;1868;48.918;9.438;2023-06-14T00:04:26;13.50;95.00
3705;DHT22;1868;48.918;9.438;2023-06-14T00:06:55;13.50;95.10
3705;DHT22;1868;48.918;9.438;2023-06-14T00:09:25;13.50;95.80
3705;DHT22;1868;48.918;9.438;2023-06-14T00:11:54;13.40;96.20
3705;DHT22;1868;48.918;9.438;2023-06-14T00:14:23;13.40;96.30
3705;DHT22;1868;48.918;9.438;2023-06-14T00:16:52;13.30;97.00
3705;DHT22;1868;48.918;9.438;2023-06-14T00:19:27;13.30;97.20
3705;DHT22;1868;48.918;9.438;2023-06-14T00:21:59;13.30;97.30
3705;DHT22;1868;48.918;9.438;2023-06-14T00:24:29;13.20;97.40
3705;DHT22;1868;48.918;9.438;2023-06-14T00:26:57;13.20;97.20
3705;DHT22;1868;48.918;9.438;2023-06-14T00:29:26;13.10;97.00
3705;DHT22;1868;48.918;9.438;2023-06-14T00:31:55;13.10;97.10
3705;DHT22;1868;48.918;9.438;2023-06-14T00:34:27;13.10;97.40
3705;DHT22;1868;48.918;9.438;2023-06-14T00:36:56;13.00;97.40
3705;DHT22;1868;48.918;9.438;2023-06-14T00:39:25;13.00;97.40
3705;DHT22;1868;48.918;9.438;2023-06-14T00:41:55;12.90;97.40
3705;DHT22;1868;48.918;9.438;2023-06-14T00:44:26;12.90;97.40
3705;DHT22;1868;48.918;9.438;2023-06-14T00:46:55;12.90;97.40
3705;DHT22;1868;48.918;9.438;2023-06-14T00:49:27;12.90;97.40
3705;DHT22;1868;48.918;9.438;2023-06-14T00:51:58;12.80;97.40
3705;DHT22;1868;48.918;9.438;2023-06-14T00:54:27;12.80;97.40
3705;DHT22;1868;48.918;9.438;2023-06-14T00:56:56;12.80;97.40
3705;DHT22;1868;48.918;9.438;2023-06-14T00:59:26;12.70;97.40
3705;DHT22;1868;48.918;9.438;2023-06-14T01:01:55;12.70;97.40
3705;DHT22;1868;48.918;9.438;2023-06-14T01:04:24;12.70;97.40
3705;DHT22;1868;48.918;9.438;2023-06-14T01:07:07;12.60;97.40
3705;DHT22;1868;48.918;9.438;2023-06-14T01:09:48;12.60;97.40
3705;DHT22;1868;48.918;9.438;2023-06-14T01:12:28;12.60;97.40
3705;DHT22;1868;48.918;9.438;2023-06-14T01:15:00;12.60;97.40
3705;DHT22;1868;48.918;9.438;2023-06-14T01:17:30;12.50;97.40
3705;DHT22;1868;48.918;9.438;2023-06-14T01:20:03;12.50;97.40
3705;DHT22;1868;48.918;9.438;2023-06-14T01:22:37;12.50;97.40
3705;DHT22;1868;48.918;9.438;2023-06-14T01:25:14;12.50;97.40
3705;DHT22;1868;48.918;9.438;2023-06-14T01:27:44;12.50;97.40
3705;DHT22;1868;48.918;9.438;2023-06-14T01:30:14;12.50;97.40
3705;DHT22;1868;48.918;9.438;2023-06-14T01:32:44;12.50;97.40
3705;DHT22;1868;48.918;9.438;2023-06-14T01:35:14;12.40;97.40
3705;DHT22;1868;48.918;9.438;2023-06-14T01:37:47;12.40;97.40
3705;DHT22;1868;48.918;9.438;2023-06-14T01:40:17;12.30;97.40
3705;DHT22;1868;48.918;9.438;2023-06-14T01:42:47;12.30;97.40
3705;DHT22;1868;48.918;9.438;2023-06-14T01:45:18;12.30;97.40
3705;DHT22;1868;48.918;9.438;2023-06-14T01:47:48;12.30;97.40
3705;DHT22;1868;48.918;9.438;2023-06-14T01:50:19;12.30;97.40
3705;DHT22;1868;48.918;9.438;2023-06-14T01:52:50;12.30;97.40
3705;DHT22;1868;48.918;9.438;2023-06-14T01:55:19;12.30;97.40
3705;DHT22;1868;48.918;9.438;2023-06-14T01:57:48;12.20;97.40
3705;DHT22;1868;48.918;9.438;2023-06-14T02:00:17;12.20;97.40
3705;DHT22;1868;48.918;9.438;2023-06-14T02:02:47;12.20;97.40
3705;DHT22;1868;48.918;9.438;2023-06-14T02:05:17;12.10;97.40
3705;DHT22;1868;48.918;9.438;2023-06-14T02:07:45;12.10;97.40
3705;DHT22;1868;48.918;9.438;2023-06-14T02:10:18;12.10;97.40
3705;DHT22;1868;48.918;9.438;2023-06-14T02:12:47;12.10;97.40
3705;DHT22;1868;48.918;9.438;2023-06-14T02:15:17;12.00;97.40
3705;DHT22;1868;48.918;9.438;2023-06-14T02:17:46;12.00;97.40
3705;DHT22;1868;48.918;9.438;2023-06-14T02:20:17;12.00;97.40
3705;DHT22;1868;48.918;9.438;2023-06-14T02:22:45;11.90;97.40
3705;DHT22;1868;48.918;9.438;2023-06-14T02:25:14;11.90;97.40
3705;DHT22;1868;48.918;9.438;2023-06-14T02:27:44;11.90;97.40
3705;DHT22;1868;48.918;9.438;2023-06-14T02:30:13;11.90;97.40
3705;DHT22;1868;48.918;9.438;2023-06-14T02:32:43;11.80;97.40
3705;DHT22;1868;48.918;9.438;2023-06-14T02:35:12;11.80;97.40
3705;DHT22;1868;48.918;9.438;2023-06-14T02:37:41;11.70;97.40
3705;DHT22;1868;48.918;9.438;2023-06-14T02:40:10;11.70;97.40
3705;DHT22;1868;48.918;9.438;2023-06-14T02:42:40;11.70;97.40
3705;DHT22;1868;48.918;9.438;2023-06-14T02:45:11;11.60;97.40
3705;DHT22;1868;48.918;9.438;2023-06-14T02:47:40;11.60;97.40
3705;DHT22;1868;48.918;9.438;2023-06-14T02:50:12;11.60;97.40
3705;DHT22;1868;48.918;9.438;2023-06-14T02:52:41;11.60;97.40
3705;DHT22;1868;48.918;9.438;2023-06-14T02:55:11;11.60;97.40
3705;DHT22;1868;48.918;9.438;2023-06-14T02:57:40;11.50;97.40
3705;DHT22;1868;48.918;9.438;2023-06-14T03:00:13;11.50;97.40
3705;DHT22;1868;48.918;9.438;2023-06-14T03:02:45;11.50;97.40
3705;DHT22;1868;48.918;9.438;2023-06-14T03:05:14;11.40;97.40
3705;DHT22;1868;48.918;9.438;2023-06-14T03:07:43;11.40;97.40
3705;DHT22;1868;48.918;9.438;2023-06-14T03:10:13;11.40;97.40
3705;DHT22;1868;48.918;9.438;2023-06-14T03:12:44;11.40;97.40
3705;DHT22;1868;48.918;9.438;2023-06-14T03:15:17;11.40;97.40
3705;DHT22;1868;48.918;9.438;2023-06-14T03:17:47;11.40;97.40
3705;DHT22;1868;48.918;9.438;2023-06-14T03:20:17;11.40;97.40
3705;DHT22;1868;48.918;9.438;2023-06-14T03:22:47;11.40;97.40
3705;DHT22;1868;48.918;9.438;2023-06-14T03:25:16;11.40;97.40
3705;DHT22;1868;48.918;9.438;2023-06-14T03:27:49;11.40;97.40
3705;DHT22;1868;48.918;9.438;2023-06-14T03:30:20;11.30;97.40
3705;DHT22;1868;48.918;9.438;2023-06-14T03:32:52;11.40;97.40
3705;DHT22;1868;48.918;9.438;2023-06-14T03:35:25;11.30;97.40
3705;DHT22;1868;48.918;9.438;2023-06-14T03:37:54;11.40;97.40
3705;DHT22;1868;48.918;9.438;2023-06-14T03:40:24;11.40;97.40
3705;DHT22;1868;48.918;9.438;2023-06-14T03:43:00;11.40;97.40
3705;DHT22;1868;48.918;9.438;2023-06-14T03:45:31;11.50;97.40
3705;DHT22;1868;48.918;9.438;2023-06-14T03:48:00;11.50;97.40
3705;DHT22;1868;48.918;9.438;2023-06-14T03:50:30;11.60;97.40
3705;DHT22;1868;48.918;9.438;2023-06-14T03:53:00;11.60;97.40
3705;DHT22;1868;48.918;9.438;2023-06-14T03:55:31;11.70;97.40
3705;DHT22;1868;48.918;9.438;2023-06-14T03:58:04;11.70;97.40
3705;DHT22;1868;48.918;9.438;2023-06-14T04:00:37;11.80;97.40
3705;DHT22;1868;48.918;9.438;2023-06-14T04:03:07;11.80;97.40
3705;DHT22;1868;48.918;9.438;2023-06-14T04:05:37;11.90;97.40
3705;DHT22;1868;48.918;9.438;2023-06-14T04:08:10;11.90;97.40
3705;DHT22;1868;48.918;9.438;2023-06-14T04:10:42;11.90;97.40
3705;DHT22;1868;48.918;9.438;2023-06-14T04:13:11;11.90;97.40
3705;DHT22;1868;48.918;9.438;2023-06-14T04:15:43;12.00;97.40
3705;DHT22;1868;48.918;9.438;2023-06-14T04:18:19;12.00;97.40
3705;DHT22;1868;48.918;9.438;2023-06-14T04:20:50;12.00;97.40
3705;DHT22;1868;48.918;9.438;2023-06-14T04:23:20;12.10;97.40
3705;DHT22;1868;48.918;9.438;2023-06-14T04:25:51;12.10;97.40
3705;DHT22;1868;48.918;9.438;2023-06-14T04:28:21;12.20;97.40
3705;DHT22;1868;48.918;9.438;2023-06-14T04:30:57;12.30;97.40
3705;DHT22;1868;48.918;9.438;2023-06-14T04:33:31;12.40;97.40
3705;DHT22;1868;48.918;9.438;2023-06-14T04:36:01;12.50;97.40
3705;DHT22;1868;48.918;9.438;2023-06-14T04:38:31;12.50;97.40
3705;DHT22;1868;48.918;9.438;2023-06-14T04:41:02;12.70;97.40
3705;DHT22;1868;48.918;9.438;2023-06-14T04:43:31;12.80;97.40
3705;DHT22;1868;48.918;9.438;2023-06-14T04:46:08;12.90;97.40
3705;DHT22;1868;48.918;9.438;2023-06-14T04:48:40;13.00;97.40
3705;DHT22;1868;48.918;9.438;2023-06-14T04:51:10;13.10;97.40
3705;DHT22;1868;48.918;9.438;2023-06-14T04:53:40;13.30;97.40
3705;DHT22;1868;48.918;9.438;2023-06-14T04:56:12;13.40;97.40
3705;DHT22;1868;48.918;9.438;2023-06-14T04:58:40;13.50;97.40
3705;DHT22;1868;48.918;9.438;2023-06-14T05:01:10;13.60;97.40
3705;DHT22;1868;48.918;9.438;2023-06-14T05:03:39;13.80;97.40
3705;DHT22;1868;48.918;9.438;2023-06-14T05:06:12;13.90;97.40
3705;DHT22;1868;48.918;9.438;2023-06-14T05:08:41;14.00;97.40
3705;DHT22;1868;48.918;9.438;2023-06-14T05:11:09;14.20;97.40
3705;DHT22;1868;48.918;9.438;2023-06-14T05:13:38;14.30;97.40
3705;DHT22;1868;48.918;9.438;2023-06-14T05:16:11;14.40;97.40
3705;DHT22;1868;48.918;9.438;2023-06-14T05:18:40;14.50;97.40
3705;DHT22;1868;48.918;9.438;2023-06-14T05:21:09;14.60;97.40
3705;DHT22;1868;48.918;9.438;2023-06-14T05:23:38;14.70;97.40
3705;DHT22;1868;48.918;9.438;2023-06-14T05:26:07;14.90;97.40
3705;DHT22;1868;48.918;9.438;2023-06-14T05:28:35;15.00;97.40
3705;DHT22;1868;48.918;9.438;2023-06-14T05:31:04;15.10;97.30
3705;DHT22;1868;48.918;9.438;2023-06-14T05:33:34;15.30;97.30
3705;DHT22;1868;48.918;9.438;2023-06-14T05:36:03;15.40;97.40
3705;DHT22;1868;48.918;9.438;2023-06-14T05:38:34;15.60;96.70
3705;DHT22;1868;48.918;9.438;2023-06-14T05:41:03;15.70;95.40
3705;DHT22;1868;48.918;9.438;2023-06-14T05:43:32;15.70;95.60
3705;DHT22;1868;48.918;9.438;2023-06-14T05:46:01;15.90;96.50
3705;DHT22;1868;48.918;9.438;2023-06-14T05:48:30;16.00;96.20
3705;DHT22;1868;48.918;9.438;2023-06-14T05:51:00;16.10;95.60
3705;DHT22;1868;48.918;9.438;2023-06-14T05:53:29;16.30;95.40
3705;DHT22;1868;48.918;9.438;2023-06-14T05:55:58;16.60;95.20
3705;DHT22;1868;48.918;9.438;2023-06-14T05:58:26;16.80;93.20
3705;DHT22;1868;48.918;9.438;2023-06-14T06:00:55;17.00;93.20
3705;DHT22;1868;48.918;9.438;2023-06-14T06:03:24;17.20;91.80
3705;DHT22;1868;48.918;9.438;2023-06-14T06:05:56;17.30;91.80
3705;DHT22;1868;48.918;9.438;2023-06-14T06:08:27;17.50;91.70
3705;DHT22;1868;48.918;9.438;2023-06-14T06:10:56;17.60;90.10
3705;DHT22;1868;48.918;9.438;2023-06-14T06:13:24;17.80;90.10
3705;DHT22;1868;48.918;9.438;2023-06-14T06:15:53;17.90;90.50
3705;DHT22;1868;48.918;9.438;2023-06-14T06:18:23;18.10;88.20
3705;DHT22;1868;48.918;9.438;2023-06-14T06:20:52;18.20;88.20
3705;DHT22;1868;48.918;9.438;2023-06-14T06:23:23;18.20;87.90
3705;DHT22;1868;48.918;9.438;2023-06-14T06:25:54;18.40;89.60
3705;DHT22;1868;48.918;9.438;2023-06-14T06:28:23;18.50;89.40
3705;DHT22;1868;48.918;9.438;2023-06-14T06:30:51;18.70;88.40
3705;DHT22;1868;48.918;9.438;2023-06-14T06:33:21;18.80;87.10
3705;DHT22;1868;48.918;9.438;2023-06-14T06:35:50;18.90;87.30
3705;DHT22;1868;48.918;9.438;2023-06-14T06:38:19;19.10;87.30
3705;DHT22;1868;48.918;9.438;2023-06-14T06:40:47;19.30;86.60
3705;DHT22;1868;48.918;9.438;2023-06-14T06:43:17;19.40;84.90
3705;DHT22;1868;48.918;9.438;2023-06-14T06:45:47;19.50;83.60
3705;DHT22;1868;48.918;9.438;2023-06-14T06:48:16;19.60;84.00
3705;DHT22;1868;48.918;9.438;2023-06-14T06:50:45;19.80;83.20
3705;DHT22;1868;48.918;9.438;2023-06-14T06:53:14;19.90;83.60
3705;DHT22;1868;48.918;9.438;2023-06-14T06:55:56;20.10;83.40
3705;DHT22;1868;48.918;9.438;2023-06-14T06:58:26;20.30;82.70
3705;DHT22;1868;48.918;9.438;2023-06-14T07:00:55;20.40;81.20
3705;DHT22;1868;48.918;9.438;2023-06-14T07:03:23;20.50;79.90
3705;DHT22;1868;48.918;9.438;2023-06-14T07:05:53;20.70;80.20
3705;DHT22;1868;48.918;9.438;2023-06-14T07:08:23;20.80;80.20
3705;DHT22;1868;48.918;9.438;2023-06-14T07:10:51;20.90;78.40
3705;DHT22;1868;48.918;9.438;2023-06-14T07:13:20;21.00;77.60
3705;DHT22;1868;48.918;9.438;2023-06-14T07:15:50;21.10;78.20
3705;DHT22;1868;48.918;9.438;2023-06-14T07:18:20;21.10;76.70
3705;DHT22;1868;48.918;9.438;2023-06-14T07:20:49;21.20;77.40
3705;DHT22;1868;48.918;9.438;2023-06-14T07:23:17;21.30;76.90
3705;DHT22;1868;48.918;9.438;2023-06-14T07:25:46;21.50;76.50
3705;DHT22;1868;48.918;9.438;2023-06-14T07:28:16;21.60;76.70
3705;DHT22;1868;48.918;9.438;2023-06-14T07:30:45;21.60;76.90
3705;DHT22;1868;48.918;9.438;2023-06-14T07:33:17;21.80;75.60
3705;DHT22;1868;48.918;9.438;2023-06-14T07:35:45;21.90;74.80
3705;DHT22;1868;48.918;9.438;2023-06-14T07:38:15;21.90;74.60
3705;DHT22;1868;48.918;9.438;2023-06-14T07:40:44;22.00;75.60
3705;DHT22;1868;48.918;9.438;2023-06-14T07:43:12;22.10;73.70
3705;DHT22;1868;48.918;9.438;2023-06-14T07:45:42;22.20;74.50
3705;DHT22;1868;48.918;9.438;2023-06-14T07:48:32;22.30;73.20
3705;DHT22;1868;48.918;9.438;2023-06-14T07:51:01;22.30;72.40
3705;DHT22;1868;48.918;9.438;2023-06-14T07:53:31;22.40;72.60
3705;DHT22;1868;48.918;9.438;2023-06-14T07:56:00;22.50;72.80
3705;DHT22;1868;48.918;9.438;2023-06-14T07:58:30;22.60;70.00
3705;DHT22;1868;48.918;9.438;2023-06-14T08:00:58;22.60;70.50
3705;DHT22;1868;48.918;9.438;2023-06-14T08:03:32;22.70;67.70
3705;DHT22;1868;48.918;9.438;2023-06-14T08:06:01;22.80;70.70
3705;DHT22;1868;48.918;9.438;2023-06-14T08:08:31;23.00;70.50
3705;DHT22;1868;48.918;9.438;2023-06-14T08:11:00;23.10;70.40
3705;DHT22;1868;48.918;9.438;2023-06-14T08:13:29;23.30;68.90
3705;DHT22;1868;48.918;9.438;2023-06-14T08:15:58;23.40;68.70
3705;DHT22;1868;48.918;9.438;2023-06-14T08:18:28;23.50;67.70
3705;DHT22;1868;48.918;9.438;2023-06-14T08:20:58;23.70;66.30
3705;DHT22;1868;48.918;9.438;2023-06-14T08:23:28;23.70;66.80
3705;DHT22;1868;48.918;9.438;2023-06-14T08:25:57;23.80;66.60
3705;DHT22;1868;48.918;9.438;2023-06-14T08:28:28;24.00;65.50
3705;DHT22;1868;48.918;9.438;2023-06-14T08:30:57;24.10;65.10
3705;DHT22;1868;48.918;9.438;2023-06-14T08:33:25;24.20;65.10
3705;DHT22;1868;48.918;9.438;2023-06-14T08:35:55;24.30;63.50
3705;DHT22;1868;48.918;9.438;2023-06-14T08:38:27;24.30;63.50
3705;DHT22;1868;48.918;9.438;2023-06-14T08:40:57;24.40;64.20
3705;DHT22;1868;48.918;9.438;2023-06-14T08:43:26;24.40;64.40
3705;DHT22;1868;48.918;9.438;2023-06-14T08:45:59;24.50;62.30
3705;DHT22;1868;48.918;9.438;2023-06-14T08:48:30;24.60;62.50
3705;DHT22;1868;48.918;9.438;2023-06-14T08:51:02;24.70;61.60
3705;DHT22;1868;48.918;9.438;2023-06-14T08:53:33;24.70;63.10
3705;DHT22;1868;48.918;9.438;2023-06-14T08:56:05;24.90;61.40
3705;DHT22;1868;48.918;9.438;2023-06-14T08:58:43;24.90;61.00
3705;DHT22;1868;48.918;9.438;2023-06-14T09:01:15;25.00;60.50
3705;DHT22;1868;48.918;9.438;2023-06-14T09:03:44;25.10;59.30
3705;DHT22;1868;48.918;9.438;2023-06-14T09:06:16;25.20;58.60
3705;DHT22;1868;48.918;9.438;2023-06-14T09:08:47;25.30;58.10
3705;DHT22;1868;48.918;9.438;2023-06-14T09:11:18;25.40;58.40
3705;DHT22;1868;48.918;9.438;2023-06-14T09:13:48;25.60;57.70
3705;DHT22;1868;48.918;9.438;2023-06-14T09:16:17;25.60;55.80
3705;DHT22;1868;48.918;9.438;2023-06-14T09:18:48;25.70;55.20
3705;DHT22;1868;48.918;9.438;2023-06-14T09:21:17;25.70;55.80
3705;DHT22;1868;48.918;9.438;2023-06-14T09:23:48;25.80;56.10
3705;DHT22;1868;48.918;9.438;2023-06-14T09:26:17;25.90;54.90
3705;DHT22;1868;48.918;9.438;2023-06-14T09:28:48;26.00;55.80
3705;DHT22;1868;48.918;9.438;2023-06-14T09:31:19;26.10;56.60
3705;DHT22;1868;48.918;9.438;2023-06-14T09:33:50;26.20;55.10
3705;DHT22;1868;48.918;9.438;2023-06-14T09:36:22;26.20;50.70
3705;DHT22;1868;48.918;9.438;2023-06-14T09:38:56;26.40;53.10
3705;DHT22;1868;48.918;9.438;2023-06-14T09:41:31;26.50;52.30
3705;DHT22;1868;48.918;9.438;2023-06-14T09:44:00;26.50;51.70
3705;DHT22;1868;48.918;9.438;2023-06-14T09:46:36;26.50;50.20
3705;DHT22;1868;48.918;9.438;2023-06-14T09:49:06;26.60;49.90
3705;DHT22;1868;48.918;9.438;2023-06-14T09:51:42;26.70;51.40
3705;DHT22;1868;48.918;9.438;2023-06-14T09:54:16;26.90;52.60
3705;DHT22;1868;48.918;9.438;2023-06-14T09:56:51;27.00;51.10
3705;DHT22;1868;48.918;9.438;2023-06-14T09:59:22;27.00;52.20
3705;DHT22;1868;48.918;9.438;2023-06-14T10:01:58;27.00;49.40
3705;DHT22;1868;48.918;9.438;2023-06-14T10:04:30;27.10;49.70
3705;DHT22;1868;48.918;9.438;2023-06-14T10:07:00;27.20;49.00
3705;DHT22;1868;48.918;9.438;2023-06-14T10:09:31;27.50;48.20
3705;DHT22;1868;48.918;9.438;2023-06-14T10:12:01;27.50;48.40
3705;DHT22;1868;48.918;9.438;2023-06-14T10:14:31;27.80;48.40
3705;DHT22;1868;48.918;9.438;2023-06-14T10:17:04;28.00;46.70
3705;DHT22;1868;48.918;9.438;2023-06-14T10:19:41;27.90;47.60
3705;DHT22;1868;48.918;9.438;2023-06-14T10:22:16;27.90;45.20
3705;DHT22;1868;48.918;9.438;2023-06-14T10:24:51;27.60;46.10
3705;DHT22;1868;48.918;9.438;2023-06-14T10:27:21;27.70;46.40
3705;DHT22;1868;48.918;9.438;2023-06-14T10:30:06;27.60;46.70
3705;DHT22;1868;48.918;9.438;2023-06-14T10:33:03;27.70;43.60
3705;DHT22;1868;48.918;9.438;2023-06-14T10:35:34;28.00;43.80
3705;DHT22;1868;48.918;9.438;2023-06-14T10:38:07;28.20;44.40
3705;DHT22;1868;48.918;9.438;2023-06-14T10:40:39;28.30;42.00
3705;DHT22;1868;48.918;9.438;2023-06-14T10:43:21;28.10;42.90
3705;DHT22;1868;48.918;9.438;2023-06-14T10:46:14;28.10;44.10
3705;DHT22;1868;48.918;9.438;2023-06-14T10:48:44;28.50;42.90
3705;DHT22;1868;48.918;9.438;2023-06-14T10:51:18;28.80;43.20
3705;DHT22;1868;48.918;9.438;2023-06-14T10:53:48;29.20;43.60
3705;DHT22;1868;48.918;9.438;2023-06-14T10:56:29;29.40;40.90
3705;DHT22;1868;48.918;9.438;2023-06-14T10:58:58;29.50;40.00
3705;DHT22;1868;48.918;9.438;2023-06-14T11:01:41;29.80;40.60
3705;DHT22;1868;48.918;9.438;2023-06-14T11:04:20;29.90;38.90
3705;DHT22;1868;48.918;9.438;2023-06-14T11:06:50;30.20;39.50
3705;DHT22;1868;48.918;9.438;2023-06-14T11:09:41;30.00;38.30
3705;DHT22;1868;48.918;9.438;2023-06-14T11:12:17;29.70;40.90
3705;DHT22;1868;48.918;9.438;2023-06-14T11:14:47;29.10;41.20
3705;DHT22;1868;48.918;9.438;2023-06-14T11:17:16;28.70;43.30
3705;DHT22;1868;48.918;9.438;2023-06-14T11:19:46;28.50;42.10
3705;DHT22;1868;48.918;9.438;2023-06-14T11:22:15;28.20;42.90
3705;DHT22;1868;48.918;9.438;2023-06-14T11:24:44;27.90;43.50
3705;DHT22;1868;48.918;9.438;2023-06-14T11:27:13;27.80;42.60
3705;DHT22;1868;48.918;9.438;2023-06-14T11:29:49;28.00;42.40
3705;DHT22;1868;48.918;9.438;2023-06-14T11:32:18;28.50;43.20
3705;DHT22;1868;48.918;9.438;2023-06-14T11:34:47;29.00;41.40
3705;DHT22;1868;48.918;9.438;2023-06-14T11:37:17;28.90;42.60
3705;DHT22;1868;48.918;9.438;2023-06-14T11:39:45;28.40;42.60
3705;DHT22;1868;48.918;9.438;2023-06-14T11:42:15;28.00;42.90
3705;DHT22;1868;48.918;9.438;2023-06-14T11:44:46;27.90;43.60
3705;DHT22;1868;48.918;9.438;2023-06-14T11:47:16;28.00;44.00
3705;DHT22;1868;48.918;9.438;2023-06-14T11:49:46;28.00;44.10
3705;DHT22;1868;48.918;9.438;2023-06-14T11:52:16;28.40;43.60
3705;DHT22;1868;48.918;9.438;2023-06-14T11:54:48;28.60;42.30
3705;DHT22;1868;48.918;9.438;2023-06-14T11:57:18;29.10;42.60
3705;DHT22;1868;48.918;9.438;2023-06-14T11:59:47;29.30;40.30
3705;DHT22;1868;48.918;9.438;2023-06-14T12:02:21;29.30;40.10
3705;DHT22;1868;48.918;9.438;2023-06-14T12:04:52;29.60;41.20
3705;DHT22;1868;48.918;9.438;2023-06-14T12:07:22;28.90;41.70
3705;DHT22;1868;48.918;9.438;2023-06-14T12:10:04;28.50;42.60
3705;DHT22;1868;48.918;9.438;2023-06-14T12:12:37;28.20;43.20
3705;DHT22;1868;48.918;9.438;2023-06-14T12:15:09;27.70;44.30
3705;DHT22;1868;48.918;9.438;2023-06-14T12:17:42;27.30;45.30
3705;DHT22;1868;48.918;9.438;2023-06-14T12:20:12;27.20;45.80
3705;DHT22;1868;48.918;9.438;2023-06-14T12:22:52;27.00;45.30
3705;DHT22;1868;48.918;9.438;2023-06-14T12:25:28;27.00;46.20
3705;DHT22;1868;48.918;9.438;2023-06-14T12:27:59;27.30;47.20
3705;DHT22;1868;48.918;9.438;2023-06-14T12:30:32;27.80;46.50
3705;DHT22;1868;48.918;9.438;2023-06-14T12:33:04;28.30;45.00
3705;DHT22;1868;48.918;9.438;2023-06-14T12:35:33;28.80;43.80
3705;DHT22;1868;48.918;9.438;2023-06-14T12:38:04;29.10;44.30
3705;DHT22;1868;48.918;9.438;2023-06-14T12:40:32;29.40;43.60
3705;DHT22;1868;48.918;9.438;2023-06-14T12:43:02;29.70;42.40
3705;DHT22;1868;48.918;9.438;2023-06-14T12:45:31;29.80;41.20
3705;DHT22;1868;48.918;9.438;2023-06-14T12:48:00;30.00;42.30
3705;DHT22;1868;48.918;9.438;2023-06-14T12:50:31;30.20;41.20
3705;DHT22;1868;48.918;9.438;2023-06-14T12:53:01;30.20;40.10
3705;DHT22;1868;48.918;9.438;2023-06-14T12:55:30;30.30;39.50
3705;DHT22;1868;48.918;9.438;2023-06-14T12:57:58;30.40;40.10
3705;DHT22;1868;48.918;9.438;2023-06-14T13:00:27;30.40;39.20
3705;DHT22;1868;48.918;9.438;2023-06-14T13:02:57;30.50;40.00
3705;DHT22;1868;48.918;9.438;2023-06-14T13:05:27;30.60;38.90
3705;DHT22;1868;48.918;9.438;2023-06-14T13:07:57;30.80;38.90
3705;DHT22;1868;48.918;9.438;2023-06-14T13:10:27;30.90;36.20
3705;DHT22;1868;48.918;9.438;2023-06-14T13:12:56;30.60;37.90
3705;DHT22;1868;48.918;9.438;2023-06-14T13:15:27;30.60;39.10
3705;DHT22;1868;48.918;9.438;2023-06-14T13:17:58;30.50;38.30
3705;DHT22;1868;48.918;9.438;2023-06-14T13:20:29;30.20;39.50
3705;DHT22;1868;48.918;9.438;2023-06-14T13:22:58;29.80;38.50
3705;DHT22;1868;48.918;9.438;2023-06-14T13:25:28;29.40;40.50
3705;DHT22;1868;48.918;9.438;2023-06-14T13:27:58;29.00;41.70
3705;DHT22;1868;48.918;9.438;2023-06-14T13:30:26;28.50;42.40
3705;DHT22;1868;48.918;9.438;2023-06-14T13:32:55;28.30;42.40
3705;DHT22;1868;48.918;9.438;2023-06-14T13:35:24;28.30;43.20
3705;DHT22;1868;48.918;9.438;2023-06-14T13:37:55;28.30;42.40
3705;DHT22;1868;48.918;9.438;2023-06-14T13:40:24;28.30;43.80
3705;DHT22;1868;48.918;9.438;2023-06-14T13:42:53;28.10;44.10
3705;DHT22;1868;48.918;9.438;2023-06-14T13:45:22;28.00;44.90
3705;DHT22;1868;48.918;9.438;2023-06-14T13:47:52;28.00;44.30
3705;DHT22;1868;48.918;9.438;2023-06-14T13:50:21;27.90;43.80
3705;DHT22;1868;48.918;9.438;2023-06-14T13:52:50;27.80;44.00
3705;DHT22;1868;48.918;9.438;2023-06-14T13:55:20;27.80;45.00
3705;DHT22;1868;48.918;9.438;2023-06-14T13:57:51;27.70;44.60
3705;DHT22;1868;48.918;9.438;2023-06-14T14:00:20;27.70;45.60
3705;DHT22;1868;48.918;9.438;2023-06-14T14:02:50;27.80;45.60
3705;DHT22;1868;48.918;9.438;2023-06-14T14:05:19;28.00;45.20
3705;DHT22;1868;48.918;9.438;2023-06-14T14:07:53;28.30;43.60
3705;DHT22;1868;48.918;9.438;2023-06-14T14:10:24;28.50;42.70
3705;DHT22;1868;48.918;9.438;2023-06-14T14:12:52;28.60;42.30
3705;DHT22;1868;48.918;9.438;2023-06-14T14:15:21;28.80;40.60
3705;DHT22;1868;48.918;9.438;2023-06-14T14:17:49;29.00;42.60
3705;DHT22;1868;48.918;9.438;2023-06-14T14:20:18;29.30;40.60
3705;DHT22;1868;48.918;9.438;2023-06-14T14:22:49;29.40;40.30
3705;DHT22;1868;48.918;9.438;2023-06-14T14:25:18;29.50;40.80
3705;DHT22;1868;48.918;9.438;2023-06-14T14:27:47;29.60;40.00
3705;DHT22;1868;48.918;9.438;2023-06-14T14:30:16;29.60;40.90
3705;DHT22;1868;48.918;9.438;2023-06-14T14:32:46;29.60;38.90
3705;DHT22;1868;48.918;9.438;2023-06-14T14:35:15;29.60;40.90
3705;DHT22;1868;48.918;9.438;2023-06-14T14:37:44;29.50;40.50
3705;DHT22;1868;48.918;9.438;2023-06-14T14:40:13;29.10;40.30
3705;DHT22;1868;48.918;9.438;2023-06-14T14:42:42;28.80;42.10
3705;DHT22;1868;48.918;9.438;2023-06-14T14:45:12;28.60;42.90
3705;DHT22;1868;48.918;9.438;2023-06-14T14:47:41;28.30;42.70
3705;DHT22;1868;48.918;9.438;2023-06-14T14:50:10;28.10;42.40
3705;DHT22;1868;48.918;9.438;2023-06-14T14:52:38;27.90;42.90
3705;DHT22;1868;48.918;9.438;2023-06-14T14:55:08;27.80;42.40
3705;DHT22;1868;48.918;9.438;2023-06-14T14:57:36;27.70;42.70
3705;DHT22;1868;48.918;9.438;2023-06-14T15:00:06;27.60;43.80
3705;DHT22;1868;48.918;9.438;2023-06-14T15:02:38;27.70;43.80
3705;DHT22;1868;48.918;9.438;2023-06-14T15:05:07;27.80;44.00
3705;DHT22;1868;48.918;9.438;2023-06-14T15:07:36;27.80;43.50
3705;DHT22;1868;48.918;9.438;2023-06-14T15:10:07;27.70;43.50
3705;DHT22;1868;48.918;9.438;2023-06-14T15:12:36;27.70;43.30
3705;DHT22;1868;48.918;9.438;2023-06-14T15:15:06;27.80;43.80
3705;DHT22;1868;48.918;9.438;2023-06-14T15:17:37;27.80;42.10
3705;DHT22;1868;48.918;9.438;2023-06-14T15:20:09;27.80;43.20
3705;DHT22;1868;48.918;9.438;2023-06-14T15:22:40;28.00;43.00
3705;DHT22;1868;48.918;9.438;2023-06-14T15:25:11;28.10;41.50
3705;DHT22;1868;48.918;9.438;2023-06-14T15:27:42;28.30;42.00
3705;DHT22;1868;48.918;9.438;2023-06-14T15:30:11;28.30;42.60
3705;DHT22;1868;48.918;9.438;2023-06-14T15:32:43;28.30;42.90
3705;DHT22;1868;48.918;9.438;2023-06-14T15:35:13;28.10;42.60
3705;DHT22;1868;48.918;9.438;2023-06-14T15:37:44;28.00;42.90
3705;DHT22;1868;48.918;9.438;2023-06-14T15:40:13;28.00;43.00
3705;DHT22;1868;48.918;9.438;2023-06-14T15:42:42;27.80;43.50
3705;DHT22;1868;48.918;9.438;2023-06-14T15:45:14;27.60;43.30
3705;DHT22;1868;48.918;9.438;2023-06-14T15:47:44;27.60;44.00
3705;DHT22;1868;48.918;9.438;2023-06-14T15:50:14;27.60;43.50
3705;DHT22;1868;48.918;9.438;2023-06-14T15:52:43;27.60;43.50
3705;DHT22;1868;48.918;9.438;2023-06-14T15:55:17;27.50;43.60
3705;DHT22;1868;48.918;9.438;2023-06-14T15:57:48;27.40;43.80
3705;DHT22;1868;48.918;9.438;2023-06-14T16:00:17;27.20;45.20
3705;DHT22;1868;48.918;9.438;2023-06-14T16:02:49;27.10;45.60
3705;DHT22;1868;48.918;9.438;2023-06-14T16:05:18;27.20;45.60
3705;DHT22;1868;48.918;9.438;2023-06-14T16:07:47;27.10;46.40
3705;DHT22;1868;48.918;9.438;2023-06-14T16:10:16;27.00;46.40
3705;DHT22;1868;48.918;9.438;2023-06-14T16:12:46;27.10;46.40
3705;DHT22;1868;48.918;9.438;2023-06-14T16:15:14;27.00;45.50
3705;DHT22;1868;48.918;9.438;2023-06-14T16:17:45;27.10;45.90
3705;DHT22;1868;48.918;9.438;2023-06-14T16:20:19;27.20;47.00
3705;DHT22;1868;48.918;9.438;2023-06-14T16:22:48;27.10;46.10
3705;DHT22;1868;48.918;9.438;2023-06-14T16:25:18;27.10;46.40